createdAt,value
2019-05-21T00:02:08.175Z,12.80
2019-05-21T00:04:38.749Z,12.80
2019-05-21T00:07:09.355Z,12.80
2019-05-21T00:09:39.838Z,12.80
2019-05-21T00:12:10.825Z,12.80
2019-05-21T00:14:41.441Z,12.80
2019-05-21T00:17:11.985Z,12.70
2019-05-21T00:19:42.497Z,12.80
2019-05-21T00:22:14.126Z,12.80
2019-05-21T00:24:44.715Z,12.80
2019-05-21T00:27:15.367Z,12.80
2019-05-21T00:30:21.889Z,12.70
2019-05-21T00:33:28.099Z,12.70
2019-05-21T00:36:35.783Z,12.50
2019-05-21T00:39:42.557Z,12.40
2019-05-21T00:42:11.577Z,12.20
2019-05-21T00:44:43.997Z,12.00
2019-05-21T00:47:14.714Z,12.00
2019-05-21T00:49:45.305Z,12.00
2019-05-21T00:52:15.768Z,12.00
2019-05-21T00:54:46.468Z,12.10
2019-05-21T00:57:16.948Z,12.00
2019-05-21T00:59:47.731Z,11.90
2019-05-21T01:02:18.251Z,12.00
2019-05-21T01:05:00.147Z,12.00
2019-05-21T01:07:20.894Z,12.20
2019-05-21T01:09:51.605Z,12.40
2019-05-21T01:12:22.109Z,12.40
2019-05-21T01:14:52.697Z,12.30
2019-05-21T01:17:23.236Z,12.30
2019-05-21T01:19:54.894Z,12.30
2019-05-21T01:22:25.380Z,12.40
2019-05-21T01:24:55.949Z,12.30
2019-05-21T01:27:26.453Z,12.30
2019-05-21T01:29:56.917Z,12.30
2019-05-21T01:32:27.578Z,12.20
2019-05-21T01:34:58.090Z,12.30
2019-05-21T01:37:28.531Z,12.00
2019-05-21T01:39:58.943Z,11.70
2019-05-21T01:42:29.406Z,11.50
2019-05-21T01:45:00.265Z,11.30
2019-05-21T01:47:30.933Z,11.20
2019-05-21T01:50:01.529Z,11.10
2019-05-21T01:52:32.028Z,11.00
2019-05-21T01:55:02.612Z,11.00
2019-05-21T01:57:33.217Z,11.20
2019-05-21T02:00:03.749Z,11.20
2019-05-21T02:02:34.357Z,11.30
2019-05-21T02:05:05.246Z,11.20
2019-05-21T02:07:35.809Z,11.30
2019-05-21T02:10:07.693Z,11.40
2019-05-21T02:12:38.360Z,11.40
2019-05-21T02:15:09.008Z,11.60
2019-05-21T02:17:40.573Z,11.70
2019-05-21T02:20:13.384Z,11.90
2019-05-21T02:22:43.993Z,11.90
2019-05-21T02:25:15.127Z,11.90
2019-05-21T02:27:46.943Z,11.90
2019-05-21T02:30:17.539Z,12.10
2019-05-21T02:32:48.262Z,12.20
2019-05-21T02:35:18.776Z,12.20
2019-05-21T02:37:49.296Z,12.20
2019-05-21T02:40:20.323Z,12.10
2019-05-21T02:42:50.805Z,12.20
2019-05-21T02:45:21.363Z,12.20
2019-05-21T02:47:52.069Z,12.20
2019-05-21T02:50:23.884Z,12.20
2019-05-21T02:52:54.365Z,12.20
2019-05-21T02:55:26.958Z,12.20
2019-05-21T02:57:57.478Z,12.20
2019-05-21T03:00:38.956Z,12.30
2019-05-21T03:03:10.906Z,12.40
2019-05-21T03:05:41.486Z,12.50
2019-05-21T03:08:12.137Z,12.60
2019-05-21T03:10:44.271Z,12.60
2019-05-21T03:13:15.384Z,12.60
2019-05-21T03:15:51.802Z,12.70
2019-05-21T03:18:23.974Z,12.90
2019-05-21T03:20:56.019Z,13.70
2019-05-21T03:23:28.573Z,14.80
2019-05-21T03:26:00.558Z,15.00
2019-05-21T03:28:31.125Z,14.50
2019-05-21T03:31:03.745Z,15.00
2019-05-21T03:33:34.909Z,15.90
2019-05-21T03:36:05.570Z,17.40
2019-05-21T03:38:36.061Z,17.30
2019-05-21T03:41:06.626Z,15.60
2019-05-21T03:43:37.288Z,14.60
2019-05-21T03:46:08.171Z,14.00
2019-05-21T03:48:38.808Z,13.80
2019-05-21T03:51:10.514Z,13.40
2019-05-21T03:53:42.666Z,13.20
2019-05-21T03:56:13.127Z,13.10
2019-05-21T03:58:43.791Z,13.10
2019-05-21T04:01:15.216Z,13.20
2019-05-21T04:03:45.844Z,13.20
2019-05-21T04:06:17.055Z,13.10
2019-05-21T04:08:47.791Z,13.10
2019-05-21T04:11:18.403Z,13.20
2019-05-21T04:13:48.990Z,13.20
2019-05-21T04:16:38.469Z,13.50
2019-05-21T04:19:12.977Z,13.60
2019-05-21T04:21:43.493Z,13.60
2019-05-21T04:24:14.109Z,13.60
2019-05-21T04:26:45.793Z,13.70
2019-05-21T04:29:16.372Z,13.80
2019-05-21T04:31:46.852Z,14.10
2019-05-21T04:34:17.400Z,14.20
2019-05-21T04:36:47.885Z,14.30
2019-05-21T04:39:19.902Z,14.50
2019-05-21T04:41:50.424Z,14.90
2019-05-21T04:44:21.206Z,15.20
2019-05-21T04:46:51.675Z,15.40
2019-05-21T04:49:22.247Z,15.70
2019-05-21T04:51:52.736Z,16.10
2019-05-21T04:54:23.404Z,16.70
2019-05-21T04:56:53.888Z,17.50
2019-05-21T04:59:24.494Z,18.00
2019-05-21T05:01:54.967Z,17.80
2019-05-21T05:04:27.755Z,17.30
2019-05-21T05:06:58.327Z,17.50
2019-05-21T05:09:28.966Z,17.80
2019-05-21T05:11:59.381Z,18.20
2019-05-21T05:14:29.836Z,18.50
2019-05-21T05:17:00.400Z,19.20
2019-05-21T05:19:30.921Z,19.50
2019-05-21T05:22:01.475Z,19.40
2019-05-21T05:24:33.019Z,19.60
2019-05-21T05:27:04.937Z,19.70
2019-05-21T05:29:35.582Z,20.20
2019-05-21T05:32:06.058Z,21.00
2019-05-21T05:34:36.627Z,21.70
2019-05-21T05:37:07.153Z,21.70
2019-05-21T05:39:38.130Z,21.60
2019-05-21T05:42:09.705Z,22.00
2019-05-21T05:44:41.304Z,23.30
2019-05-21T05:47:11.887Z,23.30
2019-05-21T05:49:46.176Z,23.90
2019-05-21T05:52:16.679Z,24.30
2019-05-21T05:54:47.213Z,24.70
2019-05-21T05:57:18.737Z,25.20
2019-05-21T05:59:49.345Z,26.50
2019-05-21T06:02:19.876Z,27.20
2019-05-21T06:04:50.650Z,27.10
2019-05-21T06:07:21.098Z,26.80
2019-05-21T06:09:51.703Z,27.50
2019-05-21T06:12:23.487Z,27.80
2019-05-21T06:14:53.957Z,27.90
2019-05-21T06:17:24.564Z,27.40
2019-05-21T06:19:55.026Z,27.40
2019-05-21T06:22:25.549Z,28.10
2019-05-21T06:24:56.022Z,26.80
2019-05-21T06:27:26.518Z,25.00
2019-05-21T06:29:57.093Z,24.40
2019-05-21T06:32:27.776Z,23.30
2019-05-21T06:34:58.436Z,22.10
2019-05-21T06:37:28.992Z,21.30
2019-05-21T06:39:59.505Z,21.60
2019-05-21T06:42:30.015Z,23.20
2019-05-21T06:45:00.512Z,24.60
2019-05-21T06:47:31.126Z,24.60
2019-05-21T06:50:01.585Z,25.50
2019-05-21T06:52:32.435Z,25.50
2019-05-21T06:55:03.094Z,26.90
2019-05-21T06:57:33.849Z,27.80
2019-05-21T07:00:04.637Z,26.70
2019-05-21T07:02:35.404Z,26.00
2019-05-21T07:05:06.256Z,23.90
2019-05-21T07:07:36.841Z,24.10
2019-05-21T07:10:07.933Z,24.70
2019-05-21T07:12:38.584Z,24.50
2019-05-21T07:15:09.811Z,24.00
2019-05-21T07:17:40.472Z,22.80
2019-05-21T07:20:12.026Z,22.90
2019-05-21T07:22:45.674Z,23.30
2019-05-21T07:25:16.779Z,23.60
2019-05-21T07:27:47.402Z,23.50
2019-05-21T07:30:19.287Z,22.70
2019-05-21T07:32:49.962Z,21.70
2019-05-21T07:35:20.458Z,21.90
2019-05-21T07:37:51.171Z,22.00
2019-05-21T07:40:21.760Z,21.80
2019-05-21T07:42:53.399Z,22.20
2019-05-21T07:45:23.970Z,21.90
2019-05-21T07:47:54.542Z,21.70
2019-05-21T07:50:25.022Z,21.60
2019-05-21T07:52:56.724Z,21.50
2019-05-21T07:55:27.276Z,21.60
2019-05-21T07:57:57.917Z,21.70
2019-05-21T08:00:29.480Z,21.80
2019-05-21T08:02:59.987Z,22.50
2019-05-21T08:05:30.689Z,22.80
2019-05-21T08:08:01.236Z,22.60
2019-05-21T08:10:32.973Z,22.60
2019-05-21T08:13:03.546Z,22.70
2019-05-21T08:15:34.108Z,22.40
2019-05-21T08:18:04.840Z,22.80
2019-05-21T08:20:35.518Z,22.60
2019-05-21T08:23:06.080Z,22.10
2019-05-21T08:25:36.582Z,21.70
2019-05-21T08:28:07.094Z,22.10
2019-05-21T08:30:37.762Z,21.90
2019-05-21T08:33:08.283Z,22.10
2019-05-21T08:35:38.788Z,22.00
2019-05-21T08:38:09.364Z,21.40
2019-05-21T08:40:40.896Z,21.20
2019-05-21T08:43:12.314Z,21.30
2019-05-21T08:45:42.898Z,21.20
2019-05-21T08:48:13.458Z,21.30
2019-05-21T08:50:44.204Z,21.40
2019-05-21T08:53:14.941Z,21.20
2019-05-21T08:55:45.549Z,21.30
2019-05-21T08:58:16.216Z,21.60
2019-05-21T09:00:46.767Z,21.70
2019-05-21T09:03:17.411Z,21.60
2019-05-21T09:05:47.914Z,21.20
2019-05-21T09:08:18.499Z,21.60
2019-05-21T09:10:49.132Z,21.70
2019-05-21T09:13:19.791Z,21.90
2019-05-21T09:15:50.311Z,21.70
2019-05-21T09:18:20.824Z,21.80
2019-05-21T09:20:51.377Z,21.70
2019-05-21T09:23:22.010Z,21.80
2019-05-21T09:25:53.873Z,21.30
2019-05-21T09:28:24.377Z,21.50
2019-05-21T09:30:54.847Z,21.30
2019-05-21T09:33:25.389Z,21.90
2019-05-21T09:35:55.976Z,22.30
2019-05-21T09:38:26.481Z,22.10
2019-05-21T09:40:56.995Z,22.60
2019-05-21T09:43:27.558Z,22.50
2019-05-21T09:45:59.364Z,22.80
2019-05-21T09:48:29.916Z,22.40
2019-05-21T09:51:00.515Z,22.30
2019-05-21T09:53:31.067Z,22.00
2019-05-21T09:56:20.445Z,22.30
2019-05-21T09:58:51.121Z,22.30
2019-05-21T10:01:47.500Z,21.90
2019-05-21T10:04:15.423Z,21.70
2019-05-21T10:06:45.902Z,21.60
2019-05-21T10:09:19.618Z,21.50
2019-05-21T10:11:50.296Z,21.20
2019-05-21T10:14:20.752Z,21.30
2019-05-21T10:16:51.296Z,21.20
2019-05-21T10:19:21.978Z,21.50
2019-05-21T10:21:52.568Z,21.90
2019-05-21T10:24:23.337Z,21.70
2019-05-21T10:26:53.914Z,22.10
2019-05-21T10:29:24.498Z,21.90
2019-05-21T10:31:55.139Z,22.30
2019-05-21T10:34:25.641Z,21.90
2019-05-21T10:36:56.172Z,22.10
2019-05-21T10:39:26.967Z,22.20
2019-05-21T10:41:57.518Z,22.00
2019-05-21T10:44:28.084Z,21.90
2019-05-21T10:46:58.570Z,21.70
2019-05-21T10:49:29.026Z,21.60
2019-05-21T10:51:59.622Z,21.70
2019-05-21T10:54:30.162Z,21.40
2019-05-21T10:57:00.787Z,21.60
2019-05-21T10:59:31.334Z,22.00
2019-05-21T11:02:15.571Z,21.90
2019-05-21T11:04:50.421Z,21.30
2019-05-21T11:07:21.786Z,21.50
2019-05-21T11:09:52.652Z,21.20
2019-05-21T11:12:23.232Z,21.30
2019-05-21T11:14:54.394Z,21.30
2019-05-21T11:17:24.920Z,21.30
2019-05-21T11:19:55.426Z,21.70
2019-05-21T11:22:26.141Z,21.70
2019-05-21T11:24:57.947Z,21.70
2019-05-21T11:27:28.449Z,21.80
2019-05-21T11:29:59.024Z,21.70
2019-05-21T11:32:29.434Z,22.10
2019-05-21T11:35:00.101Z,21.70
2019-05-21T11:37:30.648Z,21.40
2019-05-21T11:40:01.239Z,21.80
2019-05-21T11:42:31.856Z,21.70
2019-05-21T11:45:03.520Z,21.50
2019-05-21T11:47:34.092Z,22.10
2019-05-21T11:50:05.303Z,22.30
2019-05-21T11:52:35.987Z,22.20
2019-05-21T11:55:06.865Z,22.30
2019-05-21T11:57:37.501Z,22.70
2019-05-21T12:00:09.489Z,22.80
2019-05-21T12:02:40.089Z,22.80
2019-05-21T12:05:11.171Z,21.70
2019-05-21T12:07:41.736Z,21.50
2019-05-21T12:10:12.910Z,21.30
2019-05-21T12:12:43.673Z,21.10
2019-05-21T12:15:15.378Z,21.80
2019-05-21T12:17:46.026Z,21.20
2019-05-21T12:20:17.278Z,20.90
2019-05-21T12:22:47.837Z,20.80
2019-05-21T12:25:18.456Z,21.30
2019-05-21T12:27:49.138Z,21.40
2019-05-21T12:30:19.760Z,21.00
2019-05-21T12:32:50.397Z,21.30
2019-05-21T12:35:20.862Z,21.40
2019-05-21T12:37:51.365Z,21.00
2019-05-21T12:40:22.064Z,20.80
2019-05-21T12:42:52.592Z,20.70
2019-05-21T12:45:23.232Z,20.60
2019-05-21T12:47:53.866Z,20.40
2019-05-21T12:50:26.034Z,20.40
2019-05-21T12:52:56.594Z,20.50
2019-05-21T12:55:27.119Z,20.50
2019-05-21T12:57:57.711Z,20.70
2019-05-21T13:00:32.534Z,20.50
2019-05-21T13:03:03.161Z,20.40
2019-05-21T13:05:33.713Z,20.60
2019-05-21T13:08:04.337Z,20.30
2019-05-21T13:10:34.969Z,20.50
2019-05-21T13:13:05.739Z,20.70
2019-05-21T13:15:36.395Z,20.60
2019-05-21T13:18:07.191Z,20.60
2019-05-21T13:20:37.842Z,20.80
2019-05-21T13:23:08.783Z,21.00
2019-05-21T13:25:39.513Z,20.80
2019-05-21T13:28:10.179Z,20.70
2019-05-21T13:30:40.699Z,21.00
2019-05-21T13:33:11.242Z,21.30
2019-05-21T13:35:41.725Z,21.50
2019-05-21T13:38:13.557Z,21.50
2019-05-21T13:40:45.394Z,21.50
2019-05-21T13:43:15.893Z,21.10
2019-05-21T13:45:46.514Z,21.10
2019-05-21T13:48:17.130Z,21.20
2019-05-21T13:50:47.781Z,20.90
2019-05-21T13:53:19.542Z,20.60
2019-05-21T13:55:50.136Z,20.60
2019-05-21T13:58:20.957Z,20.40
2019-05-21T14:00:54.779Z,20.50
2019-05-21T14:03:25.517Z,20.50
2019-05-21T14:05:56.189Z,20.50
2019-05-21T14:08:26.833Z,20.60
2019-05-21T14:10:57.500Z,20.70
2019-05-21T14:13:28.533Z,20.50
2019-05-21T14:15:59.245Z,20.50
2019-05-21T14:18:29.899Z,20.60
2019-05-21T14:21:00.655Z,20.60
2019-05-21T14:23:31.275Z,20.50
2019-05-21T14:26:02.003Z,20.40
2019-05-21T14:28:35.644Z,20.40
2019-05-21T14:31:06.264Z,20.80
2019-05-21T14:33:37.002Z,20.80
2019-05-21T14:36:07.506Z,20.80
2019-05-21T14:38:39.688Z,20.70
2019-05-21T14:41:10.265Z,20.80
2019-05-21T14:43:40.769Z,20.70
2019-05-21T14:46:11.215Z,20.70
2019-05-21T14:48:41.924Z,20.60
2019-05-21T14:51:13.601Z,20.60
2019-05-21T14:53:44.272Z,20.50
2019-05-21T14:56:14.993Z,20.60
2019-05-21T14:58:45.504Z,20.70
2019-05-21T15:01:16.144Z,20.70
2019-05-21T15:03:46.685Z,20.80
2019-05-21T15:06:17.402Z,20.80
2019-05-21T15:08:47.961Z,20.60
2019-05-21T15:11:19.617Z,20.60
2019-05-21T15:13:50.297Z,20.50
2019-05-21T15:16:21.103Z,20.50
2019-05-21T15:18:51.727Z,20.40
2019-05-21T15:21:29.714Z,20.30
2019-05-21T15:24:02.033Z,20.30
2019-05-21T15:26:33.202Z,20.30
2019-05-21T15:29:03.794Z,20.40
2019-05-21T15:31:34.462Z,20.30
2019-05-21T15:34:05.101Z,20.30
2019-05-21T15:36:35.770Z,20.30
2019-05-21T15:39:07.920Z,20.20
2019-05-21T15:41:38.557Z,20.20
2019-05-21T15:44:11.012Z,20.10
2019-05-21T15:46:48.123Z,20.00
2019-05-21T15:49:14.598Z,20.00
2019-05-21T15:51:46.919Z,19.90
2019-05-21T15:54:18.518Z,19.90
2019-05-21T15:56:49.009Z,19.80
2019-05-21T15:59:19.678Z,19.80
2019-05-21T16:01:52.117Z,19.80
2019-05-21T16:04:22.422Z,19.70
2019-05-21T16:06:53.030Z,19.80
2019-05-21T16:09:23.506Z,19.80
2019-05-21T16:11:54.056Z,19.80
2019-05-21T16:14:27.479Z,19.80
2019-05-21T16:16:58.009Z,19.80
2019-05-21T16:19:29.002Z,19.70
2019-05-21T16:21:59.494Z,19.70
2019-05-21T16:24:30.075Z,19.70
2019-05-21T16:27:00.793Z,19.70
2019-05-21T16:29:31.375Z,19.70
2019-05-21T16:32:04.324Z,19.70
2019-05-21T16:34:34.850Z,19.60
2019-05-21T16:37:05.728Z,19.70
2019-05-21T16:39:37.507Z,19.60
2019-05-21T16:42:08.142Z,19.50
2019-05-21T16:44:39.383Z,19.50
2019-05-21T16:47:13.541Z,19.50
2019-05-21T16:49:44.268Z,19.50
2019-05-21T16:52:16.279Z,19.50
2019-05-21T16:54:49.030Z,19.40
2019-05-21T16:57:19.564Z,19.40
2019-05-21T16:59:50.050Z,19.40
2019-05-21T17:02:20.518Z,19.40
2019-05-21T17:04:51.033Z,19.30
2019-05-21T17:07:21.473Z,19.20
2019-05-21T17:09:52.052Z,19.10
2019-05-21T17:12:22.659Z,18.90
2019-05-21T17:14:55.207Z,18.80
2019-05-21T17:17:27.332Z,18.70
2019-05-21T17:20:00.284Z,18.70
2019-05-21T17:22:31.481Z,18.60
2019-05-21T17:25:03.323Z,18.50
2019-05-21T17:27:34.200Z,18.40
2019-05-21T17:30:05.041Z,18.30
2019-05-21T17:32:37.876Z,18.20
2019-05-21T17:35:09.280Z,18.20
2019-05-21T17:37:39.876Z,18.10
2019-05-21T17:40:13.431Z,18.00
2019-05-21T17:42:44.100Z,17.80
2019-05-21T17:45:15.919Z,17.40
2019-05-21T17:47:47.813Z,17.30
2019-05-21T17:50:18.821Z,17.00
2019-05-21T17:52:50.926Z,16.80
2019-05-21T17:55:21.669Z,16.70
2019-05-21T17:57:54.100Z,16.40
2019-05-21T18:00:42.388Z,16.30
2019-05-21T18:03:14.542Z,16.10
2019-05-21T18:05:45.829Z,16.00
2019-05-21T18:08:17.281Z,15.80
2019-05-21T18:10:49.001Z,15.70
2019-05-21T18:13:21.603Z,15.50
2019-05-21T18:15:52.280Z,15.40
2019-05-21T18:18:23.410Z,15.30
2019-05-21T18:20:55.098Z,15.20
2019-05-21T18:23:26.613Z,15.20
2019-05-21T18:25:57.199Z,15.10
2019-05-21T18:28:29.455Z,15.00
2019-05-21T18:31:00.344Z,15.00
2019-05-21T18:33:34.432Z,15.00
2019-05-21T18:36:06.352Z,14.90
2019-05-21T18:38:37.040Z,14.90
2019-05-21T18:41:07.560Z,14.90
2019-05-21T18:43:38.293Z,14.90
2019-05-21T18:46:08.886Z,14.80
2019-05-21T18:48:41.675Z,14.70
2019-05-21T18:51:12.124Z,14.70
2019-05-21T18:53:42.858Z,14.70
2019-05-21T18:56:14.810Z,14.70
2019-05-21T18:58:45.702Z,14.60
2019-05-21T19:01:16.473Z,14.60
2019-05-21T19:03:47.163Z,14.70
2019-05-21T19:06:17.816Z,14.70
2019-05-21T19:08:48.395Z,14.70
2019-05-21T19:11:19.107Z,14.70
2019-05-21T19:13:49.678Z,14.60
2019-05-21T19:16:21.432Z,14.70
2019-05-21T19:18:52.724Z,14.70
2019-05-21T19:21:23.491Z,14.70
2019-05-21T19:23:55.201Z,14.70
2019-05-21T19:26:25.822Z,14.70
2019-05-21T19:28:56.380Z,14.70
2019-05-21T19:31:26.879Z,14.70
2019-05-21T19:33:57.554Z,14.70
2019-05-21T19:36:29.982Z,14.70
2019-05-21T19:39:00.602Z,14.70
2019-05-21T19:41:32.822Z,14.60
2019-05-21T19:44:03.418Z,14.70
2019-05-21T19:46:34.068Z,14.60
2019-05-21T19:49:07.212Z,14.70
2019-05-21T19:51:40.086Z,14.70
2019-05-21T19:54:11.175Z,14.70
2019-05-21T19:56:41.835Z,14.70
2019-05-21T19:59:12.273Z,14.70
2019-05-21T20:01:43.074Z,14.70
2019-05-21T20:04:14.146Z,14.70
2019-05-21T20:06:44.816Z,14.70
2019-05-21T20:09:17.654Z,14.80
2019-05-21T20:11:48.208Z,14.90
2019-05-21T20:14:18.939Z,14.90
2019-05-21T20:16:49.987Z,14.90
2019-05-21T20:19:23.105Z,15.00
2019-05-21T20:21:54.487Z,15.00
2019-05-21T20:24:26.743Z,15.00
2019-05-21T20:27:01.475Z,15.00
2019-05-21T20:29:34.648Z,15.10
2019-05-21T20:32:10.393Z,15.20
2019-05-21T20:34:42.784Z,15.20
2019-05-21T20:37:15.794Z,15.20
2019-05-21T20:39:48.658Z,15.10
2019-05-21T20:42:27.550Z,15.20
2019-05-21T20:44:58.532Z,15.20
2019-05-21T20:47:31.670Z,15.20
2019-05-21T20:50:03.864Z,15.10
2019-05-21T20:52:36.842Z,15.00
2019-05-21T20:55:12.937Z,14.90
2019-05-21T20:57:43.865Z,14.90
2019-05-21T21:00:20.929Z,14.90
2019-05-21T21:02:52.581Z,14.80
2019-05-21T21:05:23.749Z,14.80
2019-05-21T21:07:59.374Z,14.80
2019-05-21T21:10:33.052Z,14.70
2019-05-21T21:13:07.942Z,14.70
2019-05-21T21:15:45.117Z,14.70
2019-05-21T21:18:15.728Z,14.70
2019-05-21T21:20:46.453Z,14.60
2019-05-21T21:23:18.981Z,14.60
2019-05-21T21:25:50.051Z,14.60
2019-05-21T21:28:20.979Z,14.60
2019-05-21T21:30:55.273Z,14.60
2019-05-21T21:33:33.283Z,14.60
2019-05-21T21:36:08.703Z,14.50
2019-05-21T21:38:42.204Z,14.60
2019-05-21T21:41:22.082Z,14.50
2019-05-21T21:43:54.686Z,14.60
2019-05-21T21:46:33.354Z,14.60
2019-05-21T21:49:05.058Z,14.60
2019-05-21T21:51:37.074Z,14.50
2019-05-21T21:54:08.678Z,14.50
2019-05-21T21:56:42.416Z,14.50
2019-05-21T21:59:13.137Z,14.50
2019-05-21T22:01:55.556Z,14.50
2019-05-21T22:04:36.530Z,14.50
2019-05-21T22:07:07.977Z,14.50
2019-05-21T22:09:40.241Z,14.50
2019-05-21T22:12:12.914Z,14.50
2019-05-21T22:14:51.884Z,14.50
2019-05-21T22:17:17.428Z,14.50
2019-05-21T22:19:49.393Z,14.60
2019-05-21T22:22:19.918Z,14.60
2019-05-21T22:24:51.232Z,14.60
2019-05-21T22:27:22.072Z,14.60
2019-05-21T22:29:52.621Z,14.60
2019-05-21T22:32:23.496Z,14.60
2019-05-21T22:34:53.953Z,14.60
2019-05-21T22:37:26.756Z,14.50
2019-05-21T22:39:58.254Z,14.60
2019-05-21T22:42:30.462Z,14.60
2019-05-21T22:45:07.954Z,14.60
2019-05-21T22:47:33.293Z,14.50
2019-05-21T22:50:04.019Z,14.60
2019-05-21T22:52:36.156Z,14.60
2019-05-21T22:55:07.221Z,14.60
2019-05-21T22:57:38.749Z,14.60
2019-05-21T23:00:11.151Z,14.60
2019-05-21T23:02:43.329Z,14.60
2019-05-21T23:05:14.662Z,14.60
2019-05-21T23:07:46.785Z,14.60
2019-05-21T23:10:19.218Z,14.50
2019-05-21T23:12:53.635Z,14.50
2019-05-21T23:15:25.563Z,14.40
2019-05-21T23:18:17.041Z,14.40
2019-05-21T23:21:03.218Z,14.40
2019-05-21T23:23:36.075Z,14.30
2019-05-21T23:26:08.704Z,14.30
2019-05-21T23:28:40.061Z,14.30
2019-05-21T23:31:12.461Z,14.30
2019-05-21T23:33:42.934Z,14.30
2019-05-21T23:36:13.830Z,14.20
2019-05-21T23:38:45.182Z,14.30
2019-05-21T23:41:16.451Z,14.30
2019-05-21T23:43:47.095Z,14.30
2019-05-21T23:46:17.755Z,14.30
2019-05-21T23:48:48.900Z,14.30
2019-05-21T23:51:19.424Z,14.30
2019-05-21T23:53:50.134Z,14.30
2019-05-21T23:56:22.062Z,14.30
2019-05-21T23:58:52.626Z,14.30
